Time;durP1;ratioP1;P1;durP2;ratioP2;P2;SDS_P1;SDS_P2;PMS_P1;PMS_P2;Temp;Humidity;BMP_temperature;BMP_pressure;BME280_temperature;BME280_humidity;BME280_pressure;Samples;Min_cycle;Max_cycle;Signal;HPM_P1;HPM_P2
2022/12/11 00:00:22;;;;;;;13.55;5.38;;;;;;;;;;5010189;28;20038;-78
2022/12/11 00:02:48;;;;;;;9.68;4.70;;;;;;;;;;5013305;28;20584;-79
2022/12/11 00:05:14;;;;;;;21.95;6.32;;;;;;;;;;5012761;28;20520;-79
2022/12/11 00:07:40;;;;;;;13.23;5.50;;;;;;;;;;5014631;28;20046;-79
2022/12/11 00:10:07;;;;;;;9.02;4.50;;;;;;;;;;5014792;28;20047;-79
2022/12/11 00:12:33;;;;;;;9.90;4.57;;;;;;;;;;5012366;28;20030;-78
2022/12/11 00:14:59;;;;;;;12.48;5.55;;;;;;;;;;5012093;28;20046;-78
2022/12/11 00:17:25;;;;;;;11.07;4.80;;;;;;;;;;5013057;28;20153;-78
2022/12/11 00:19:51;;;;;;;9.48;3.92;;;;;;;;;;5014669;28;20045;-79
2022/12/11 00:22:17;;;;;;;7.82;4.55;;;;;;;;;;5011301;28;20042;-78
2022/12/11 00:24:43;;;;;;;6.82;3.60;;;;;;;;;;5010031;28;20121;-79
2022/12/11 00:27:10;;;;;;;8.15;3.33;;;;;;;;;;5010603;28;20096;-78
2022/12/11 00:29:36;;;;;;;11.65;3.67;;;;;;;;;;5010077;28;20041;-78
2022/12/11 00:32:02;;;;;;;10.95;4.60;;;;;;;;;;5011992;28;20137;-78
2022/12/11 00:34:29;;;;;;;18.95;4.82;;;;;;;;;;4995690;28;20522;-79
2022/12/11 00:36:55;;;;;;;9.50;5.45;;;;;;;;;;5010050;28;20046;-79
2022/12/11 00:39:21;;;;;;;12.18;5.55;;;;;;;;;;5012594;28;20064;-78
2022/12/11 00:41:47;;;;;;;20.23;6.93;;;;;;;;;;5012254;28;20046;-79
2022/12/11 00:44:13;;;;;;;15.93;5.47;;;;;;;;;;5011473;28;20092;-79
2022/12/11 00:46:39;;;;;;;18.17;6.50;;;;;;;;;;5009784;28;20062;-78
2022/12/11 00:49:05;;;;;;;10.30;4.32;;;;;;;;;;5017455;28;20562;-78
2022/12/11 00:51:31;;;;;;;13.30;6.68;;;;;;;;;;5014711;28;20124;-77
2022/12/11 00:53:57;;;;;;;18.50;5.65;;;;;;;;;;5010953;28;20045;-77
2022/12/11 00:56:24;;;;;;;17.95;9.63;;;;;;;;;;5012716;28;20520;-77
2022/12/11 00:58:50;;;;;;;15.02;6.88;;;;;;;;;;4995555;28;20050;-77
2022/12/11 01:01:20;;;;;;;10.95;5.57;;;;;;;;;;5013563;28;20638;-79
2022/12/11 01:03:47;;;;;;;9.90;5.03;;;;;;;;;;5014803;28;20053;-78
2022/12/11 01:06:15;;;;;;;16.02;5.80;;;;;;;;;;4997985;28;20049;-78
2022/12/11 01:08:41;;;;;;;12.98;5.18;;;;;;;;;;5013038;28;20093;-77
2022/12/11 01:11:09;;;;;;;8.05;4.13;;;;;;;;;;5016883;28;21260;-78
2022/12/11 01:13:35;;;;;;;11.52;5.45;;;;;;;;;;5013726;28;20042;-78
2022/12/11 01:16:05;;;;;;;10.30;4.00;;;;;;;;;;5014771;28;20096;-78
2022/12/11 01:18:31;;;;;;;12.30;4.65;;;;;;;;;;5009801;28;20104;-78
2022/12/11 01:20:57;;;;;;;11.73;4.97;;;;;;;;;;5010712;28;20117;-78
2022/12/11 01:23:23;;;;;;;11.15;5.50;;;;;;;;;;5005376;28;20057;-78
2022/12/11 01:25:49;;;;;;;11.65;5.93;;;;;;;;;;5002699;28;20052;-78
2022/12/11 01:28:15;;;;;;;10.57;4.07;;;;;;;;;;5004228;28;20450;-78
2022/12/11 01:30:42;;;;;;;18.88;6.18;;;;;;;;;;5001543;28;20045;-78
2022/12/11 01:33:08;;;;;;;15.93;7.97;;;;;;;;;;5001820;28;20038;-78
2022/12/11 01:35:35;;;;;;;11.15;4.25;;;;;;;;;;5001696;28;20104;-78
2022/12/11 01:38:01;;;;;;;12.50;6.35;;;;;;;;;;5002033;28;20099;-78
2022/12/11 01:40:28;;;;;;;13.75;4.97;;;;;;;;;;4988868;28;20072;-78
2022/12/11 01:42:54;;;;;;;11.73;4.82;;;;;;;;;;5012227;28;20108;-78
2022/12/11 01:45:24;;;;;;;14.18;5.80;;;;;;;;;;5010708;28;20042;-78
2022/12/11 01:48:00;;;;;;;10.63;5.35;;;;;;;;;;5013736;28;20048;-78
2022/12/11 01:50:27;;;;;;;14.02;5.72;;;;;;;;;;5011211;28;20041;-78
2022/12/11 01:52:53;;;;;;;14.88;5.43;;;;;;;;;;5011331;28;20050;-78
2022/12/11 01:55:20;;;;;;;13.60;5.10;;;;;;;;;;5009664;28;20046;-78
2022/12/11 01:57:49;;;;;;;13.73;4.90;;;;;;;;;;5009545;28;20145;-78
2022/12/11 02:00:15;;;;;;;12.07;5.80;;;;;;;;;;5006917;28;20169;-78
2022/12/11 02:02:41;;;;;;;11.07;5.10;;;;;;;;;;5013239;28;20083;-78
2022/12/11 02:05:07;;;;;;;16.52;6.57;;;;;;;;;;5009297;28;20132;-78
2022/12/11 02:07:38;;;;;;;11.90;5.13;;;;;;;;;;4990096;28;21191;-78
2022/12/11 02:10:05;;;;;;;12.25;4.88;;;;;;;;;;5007148;28;21042;-78
2022/12/11 02:12:57;;;;;;;8.43;4.65;;;;;;;;;;5010036;28;20745;-78
2022/12/11 02:15:37;;;;;;;12.02;4.68;;;;;;;;;;5010805;28;20054;-78
2022/12/11 02:18:18;;;;;;;14.02;5.82;;;;;;;;;;5011292;28;20578;-77
2022/12/11 02:20:52;;;;;;;12.95;4.53;;;;;;;;;;4996700;28;20038;-78
2022/12/11 02:23:21;;;;;;;15.57;5.70;;;;;;;;;;5012536;28;20057;-78
2022/12/11 02:25:57;;;;;;;11.52;5.18;;;;;;;;;;5012653;28;20149;-78
2022/12/11 02:28:52;;;;;;;12.63;4.90;;;;;;;;;;5011752;28;20615;-78
2022/12/11 02:31:24;;;;;;;11.25;4.32;;;;;;;;;;4993664;28;20243;-78
2022/12/11 02:33:52;;;;;;;6.38;3.35;;;;;;;;;;5012144;28;20168;-78
2022/12/11 02:36:20;;;;;;;13.40;4.85;;;;;;;;;;5012343;28;20042;-78
2022/12/11 02:38:49;;;;;;;8.60;3.97;;;;;;;;;;5013697;28;20651;-78
2022/12/11 02:41:16;;;;;;;7.50;4.13;;;;;;;;;;5014771;28;20080;-78
2022/12/11 02:43:43;;;;;;;12.38;5.13;;;;;;;;;;5012673;28;20046;-78
2022/12/11 02:46:09;;;;;;;8.85;4.70;;;;;;;;;;5011906;28;20045;-78
2022/12/11 02:48:36;;;;;;;11.25;5.03;;;;;;;;;;5009506;28;20099;-78
2022/12/11 02:51:03;;;;;;;11.10;4.38;;;;;;;;;;5012344;28;20038;-78
2022/12/11 02:53:31;;;;;;;10.48;4.65;;;;;;;;;;5008897;28;20042;-78
2022/12/11 02:56:10;;;;;;;11.07;4.00;;;;;;;;;;5011526;28;20054;-78
2022/12/11 02:58:37;;;;;;;12.00;4.20;;;;;;;;;;5010182;28;20838;-78
2022/12/11 03:01:04;;;;;;;12.30;4.35;;;;;;;;;;5010325;28;20052;-78
2022/12/11 03:03:30;;;;;;;11.57;5.47;;;;;;;;;;5009463;28;20049;-78
2022/12/11 03:05:56;;;;;;;11.85;4.72;;;;;;;;;;5013891;28;20519;-77
2022/12/11 03:08:22;;;;;;;9.15;4.78;;;;;;;;;;5012649;28;20116;-78
2022/12/11 03:10:48;;;;;;;12.63;4.65;;;;;;;;;;5012618;28;20046;-78
2022/12/11 03:13:16;;;;;;;13.95;5.57;;;;;;;;;;5011857;28;20467;-78
2022/12/11 03:15:55;;;;;;;12.55;5.10;;;;;;;;;;5011266;28;20049;-78
2022/12/11 03:18:24;;;;;;;12.48;5.30;;;;;;;;;;4994650;28;20653;-78
2022/12/11 03:20:55;;;;;;;10.98;5.10;;;;;;;;;;5010517;28;20060;-77
2022/12/11 03:23:30;;;;;;;14.38;6.47;;;;;;;;;;5013159;28;20505;-78
2022/12/11 03:25:59;;;;;;;12.23;5.72;;;;;;;;;;5013716;28;20045;-78
2022/12/11 03:28:31;;;;;;;21.42;8.05;;;;;;;;;;5008338;28;21152;-78
2022/12/11 03:30:58;;;;;;;10.90;5.35;;;;;;;;;;5011228;28;20049;-78
2022/12/11 03:33:35;;;;;;;12.73;5.70;;;;;;;;;;5011680;28;20062;-78
2022/12/11 03:36:04;;;;;;;15.10;6.20;;;;;;;;;;5006281;28;20111;-78
2022/12/11 03:38:38;;;;;;;16.58;7.20;;;;;;;;;;5007507;28;20054;-78
2022/12/11 03:41:06;;;;;;;15.38;6.07;;;;;;;;;;5009298;28;20062;-78
2022/12/11 03:43:32;;;;;;;20.95;7.82;;;;;;;;;;5007170;28;20038;-78
2022/12/11 03:45:59;;;;;;;18.70;6.38;;;;;;;;;;5010338;28;20097;-78
2022/12/11 03:48:30;;;;;;;17.45;7.03;;;;;;;;;;5009351;28;20893;-78
2022/12/11 03:50:56;;;;;;;17.15;6.53;;;;;;;;;;5013191;28;20468;-78
2022/12/11 03:53:23;;;;;;;17.90;7.00;;;;;;;;;;5004991;28;20046;-78
2022/12/11 03:55:51;;;;;;;19.85;6.63;;;;;;;;;;5006406;28;20043;-78
2022/12/11 03:58:17;;;;;;;16.25;7.68;;;;;;;;;;5011328;28;20048;-78
2022/12/11 04:00:43;;;;;;;16.83;6.97;;;;;;;;;;5007491;28;20070;-77
2022/12/11 04:03:12;;;;;;;17.15;6.75;;;;;;;;;;4989937;28;20495;-78
2022/12/11 04:05:38;;;;;;;18.00;7.47;;;;;;;;;;5005879;28;20602;-78
2022/12/11 04:08:04;;;;;;;16.67;6.28;;;;;;;;;;5007383;28;20048;-78
2022/12/11 04:10:30;;;;;;;17.42;7.53;;;;;;;;;;5007224;28;20053;-78
2022/12/11 04:12:56;;;;;;;24.58;8.05;;;;;;;;;;5008344;28;20464;-78
2022/12/11 04:15:22;;;;;;;13.40;6.07;;;;;;;;;;5009555;28;20551;-78
2022/12/11 04:26:07;;;;;;;13.32;5.63;;;;;;;;;;5013809;28;20049;-78
2022/12/11 04:28:33;;;;;;;13.48;5.75;;;;;;;;;;5016247;28;20047;-78
2022/12/11 04:30:59;;;;;;;15.07;5.45;;;;;;;;;;5012518;28;20043;-78
2022/12/11 04:33:26;;;;;;;16.23;7.80;;;;;;;;;;5014301;28;20077;-77
2022/12/11 04:35:52;;;;;;;10.18;4.60;;;;;;;;;;5014273;28;20451;-77
2022/12/11 04:38:18;;;;;;;14.80;6.65;;;;;;;;;;5013198;28;20074;-77
2022/12/11 04:40:44;;;;;;;16.92;7.80;;;;;;;;;;5014444;28;20216;-77
2022/12/11 04:43:10;;;;;;;13.52;6.25;;;;;;;;;;5012212;28;20034;-78
2022/12/11 04:45:36;;;;;;;18.05;6.25;;;;;;;;;;5014368;28;20520;-78
2022/12/11 04:48:02;;;;;;;13.90;6.70;;;;;;;;;;5015750;28;20041;-78
2022/12/11 04:50:28;;;;;;;12.55;5.72;;;;;;;;;;5013315;28;20140;-78
2022/12/11 04:52:55;;;;;;;12.20;5.95;;;;;;;;;;5013743;28;20050;-78
2022/12/11 04:55:21;;;;;;;12.13;5.82;;;;;;;;;;5012751;28;20923;-78
2022/12/11 04:57:47;;;;;;;13.63;7.05;;;;;;;;;;5010630;28;20038;-78
2022/12/11 05:00:13;;;;;;;13.07;6.05;;;;;;;;;;5010514;28;20049;-78
2022/12/11 05:02:40;;;;;;;12.82;5.93;;;;;;;;;;5013615;28;20081;-78
2022/12/11 05:05:08;;;;;;;18.63;7.03;;;;;;;;;;5013764;28;20054;-78
2022/12/11 05:07:35;;;;;;;16.92;6.20;;;;;;;;;;5015604;28;20076;-78
2022/12/11 05:10:01;;;;;;;10.95;6.78;;;;;;;;;;4998272;28;20042;-78
2022/12/11 05:12:27;;;;;;;17.02;6.88;;;;;;;;;;5014010;28;20566;-77
2022/12/11 05:14:53;;;;;;;11.57;6.03;;;;;;;;;;5012553;28;20080;-77
2022/12/11 05:17:20;;;;;;;11.73;5.55;;;;;;;;;;5016164;28;20042;-77
2022/12/11 05:19:50;;;;;;;13.15;5.85;;;;;;;;;;5014679;28;20038;-77
2022/12/11 05:22:17;;;;;;;13.05;6.50;;;;;;;;;;5015260;28;20104;-77
2022/12/11 05:24:43;;;;;;;13.43;5.32;;;;;;;;;;5016867;28;20069;-78
2022/12/11 05:27:10;;;;;;;12.43;6.28;;;;;;;;;;5015501;28;20042;-77
2022/12/11 05:29:36;;;;;;;11.63;5.03;;;;;;;;;;5016269;28;20547;-77
2022/12/11 05:32:02;;;;;;;11.77;5.07;;;;;;;;;;5015816;28;20046;-77
2022/12/11 05:34:28;;;;;;;12.48;5.57;;;;;;;;;;5013471;28;20049;-77
2022/12/11 05:36:54;;;;;;;13.77;5.88;;;;;;;;;;5009845;28;20084;-77
2022/12/11 05:39:20;;;;;;;12.80;5.07;;;;;;;;;;5014687;28;20034;-77
2022/12/11 05:41:47;;;;;;;13.95;5.90;;;;;;;;;;5010719;28;20046;-78
2022/12/11 05:44:13;;;;;;;9.73;4.85;;;;;;;;;;5013860;28;20121;-77
2022/12/11 05:46:39;;;;;;;10.65;4.57;;;;;;;;;;5012879;28;20079;-78
2022/12/11 05:49:05;;;;;;;12.80;5.25;;;;;;;;;;5013195;28;20056;-77
2022/12/11 05:51:35;;;;;;;8.13;5.25;;;;;;;;;;5014026;28;20052;-77
2022/12/11 05:54:01;;;;;;;10.10;5.25;;;;;;;;;;5012909;28;20627;-77
2022/12/11 05:56:29;;;;;;;10.07;4.70;;;;;;;;;;5011868;28;20136;-77
2022/12/11 05:58:55;;;;;;;9.93;4.32;;;;;;;;;;5016408;28;20038;-77
2022/12/11 06:01:23;;;;;;;9.32;4.45;;;;;;;;;;5014101;28;20650;-77
2022/12/11 06:03:50;;;;;;;10.90;5.30;;;;;;;;;;5010175;28;20169;-77
2022/12/11 06:06:16;;;;;;;9.90;4.97;;;;;;;;;;5011644;28;20092;-77
2022/12/11 06:08:42;;;;;;;12.48;6.25;;;;;;;;;;5008859;28;21422;-77
2022/12/11 06:11:08;;;;;;;12.75;5.70;;;;;;;;;;5007046;28;20112;-77
2022/12/11 06:13:34;;;;;;;9.77;4.28;;;;;;;;;;5012510;28;20081;-77
2022/12/11 06:16:04;;;;;;;13.00;5.82;;;;;;;;;;5015166;28;20582;-77
2022/12/11 06:18:30;;;;;;;10.95;5.65;;;;;;;;;;5012911;28;20531;-77
2022/12/11 06:20:56;;;;;;;13.00;6.43;;;;;;;;;;5013555;28;20091;-77
2022/12/11 06:23:23;;;;;;;11.00;5.05;;;;;;;;;;5010627;28;20169;-79
2022/12/11 06:25:49;;;;;;;11.57;5.65;;;;;;;;;;5009777;28;20049;-77
2022/12/11 06:28:16;;;;;;;13.23;6.18;;;;;;;;;;4992373;28;20549;-78
2022/12/11 06:30:42;;;;;;;13.55;6.70;;;;;;;;;;5013814;28;20042;-78
2022/12/11 06:33:08;;;;;;;13.70;7.72;;;;;;;;;;5014387;28;20042;-77
2022/12/11 06:35:34;;;;;;;13.25;6.90;;;;;;;;;;5012550;28;20121;-77
2022/12/11 06:38:00;;;;;;;13.88;5.80;;;;;;;;;;5015027;28;20042;-77
2022/12/11 06:40:26;;;;;;;15.32;6.68;;;;;;;;;;5012452;28;20046;-77
2022/12/11 06:42:53;;;;;;;13.35;6.90;;;;;;;;;;5007807;28;20812;-77
2022/12/11 06:45:19;;;;;;;15.93;7.72;;;;;;;;;;5008816;28;20038;-78
2022/12/11 06:47:46;;;;;;;18.50;7.65;;;;;;;;;;5013751;28;20042;-78
2022/12/11 06:50:12;;;;;;;17.60;8.07;;;;;;;;;;5016643;28;20084;-88
2022/12/11 06:52:38;;;;;;;15.75;7.88;;;;;;;;;;5017446;28;20041;-86
2022/12/11 06:55:04;;;;;;;11.88;6.07;;;;;;;;;;5017804;28;20042;-85
2022/12/11 06:57:31;;;;;;;19.00;8.15;;;;;;;;;;5015887;28;20052;-87
2022/12/11 06:59:57;;;;;;;19.02;8.30;;;;;;;;;;5015755;28;20046;-86
2022/12/11 07:02:23;;;;;;;14.95;8.18;;;;;;;;;;5017243;28;20034;-86
2022/12/11 07:04:49;;;;;;;18.70;8.93;;;;;;;;;;5017251;28;20104;-88
2022/12/11 07:07:16;;;;;;;13.65;7.63;;;;;;;;;;5014973;28;20534;-87
2022/12/11 07:09:42;;;;;;;18.23;8.02;;;;;;;;;;4999311;28;20090;-88
2022/12/11 07:12:08;;;;;;;18.52;8.55;;;;;;;;;;5015880;28;20053;-88
2022/12/11 07:14:34;;;;;;;16.85;8.20;;;;;;;;;;5016881;28;20042;-87
2022/12/11 07:17:00;;;;;;;19.65;9.85;;;;;;;;;;5003690;28;20120;-87
2022/12/11 07:19:27;;;;;;;19.65;8.75;;;;;;;;;;5018696;28;20044;-87
2022/12/11 07:21:53;;;;;;;23.40;9.68;;;;;;;;;;5014645;28;20115;-88
2022/12/11 07:24:20;;;;;;;22.98;9.07;;;;;;;;;;5016686;28;20954;-88
2022/12/11 07:26:47;;;;;;;20.38;9.43;;;;;;;;;;5015292;28;20045;-86
2022/12/11 07:29:13;;;;;;;19.02;7.05;;;;;;;;;;5019244;28;20054;-88
2022/12/11 07:31:39;;;;;;;19.30;9.30;;;;;;;;;;5015725;28;20452;-87
2022/12/11 07:34:06;;;;;;;17.38;8.43;;;;;;;;;;5021069;28;20049;-87
2022/12/11 07:36:33;;;;;;;17.33;7.78;;;;;;;;;;5021897;28;20041;-88
2022/12/11 07:38:59;;;;;;;17.30;8.15;;;;;;;;;;5026150;28;20138;-87
2022/12/11 07:41:30;;;;;;;17.67;8.50;;;;;;;;;;5021264;28;20139;-87
2022/12/11 07:43:56;;;;;;;25.23;11.15;;;;;;;;;;5023216;28;20037;-87
2022/12/11 07:46:24;;;;;;;14.35;8.43;;;;;;;;;;5020213;28;20081;-87
2022/12/11 07:48:50;;;;;;;17.73;8.02;;;;;;;;;;5022409;28;20053;-87
2022/12/11 07:51:25;;;;;;;15.43;7.82;;;;;;;;;;5039332;28;20038;-86
2022/12/11 07:53:52;;;;;;;15.32;7.00;;;;;;;;;;5029538;28;20080;-86
2022/12/11 07:56:19;;;;;;;13.93;7.07;;;;;;;;;;5005117;28;20049;-86
2022/12/11 07:58:46;;;;;;;16.48;7.72;;;;;;;;;;5015326;28;20049;-85
2022/12/11 08:01:17;;;;;;;15.18;7.45;;;;;;;;;;5011745;28;20046;-85
2022/12/11 08:03:43;;;;;;;15.43;7.15;;;;;;;;;;5014180;28;20042;-86
2022/12/11 08:06:10;;;;;;;15.23;8.02;;;;;;;;;;5014740;28;20057;-86
2022/12/11 08:08:36;;;;;;;16.85;7.53;;;;;;;;;;5015710;28;21014;-85
2022/12/11 08:11:04;;;;;;;16.15;7.78;;;;;;;;;;5017742;28;20540;-87
2022/12/11 08:13:32;;;;;;;12.00;4.47;;;;;;;;;;5019529;28;20042;-88
2022/12/11 08:15:58;;;;;;;13.50;7.30;;;;;;;;;;5014885;28;20038;-87
2022/12/11 08:18:24;;;;;;;15.30;7.10;;;;;;;;;;5015824;28;20045;-87
2022/12/11 08:20:50;;;;;;;14.35;8.10;;;;;;;;;;5014732;28;20045;-90
2022/12/11 08:23:16;;;;;;;19.05;7.20;;;;;;;;;;5014628;28;20041;-87
2022/12/11 08:25:42;;;;;;;10.63;6.32;;;;;;;;;;5017652;28;20057;-88
2022/12/11 08:28:08;;;;;;;17.77;8.35;;;;;;;;;;5018944;28;20140;-87
2022/12/11 08:30:35;;;;;;;14.80;7.35;;;;;;;;;;5016696;28;20120;-88
2022/12/11 08:33:01;;;;;;;19.70;8.32;;;;;;;;;;5015933;28;20042;-87
2022/12/11 08:35:27;;;;;;;21.38;9.35;;;;;;;;;;5011341;28;20034;-88
2022/12/11 08:37:53;;;;;;;17.85;8.60;;;;;;;;;;5011235;28;20049;-89
2022/12/11 08:40:19;;;;;;;20.98;9.27;;;;;;;;;;5017499;28;20038;-87
2022/12/11 08:42:45;;;;;;;19.63;8.38;;;;;;;;;;5019874;28;20113;-88
2022/12/11 08:45:11;;;;;;;16.92;8.23;;;;;;;;;;4998833;28;20157;-89
2022/12/11 08:47:38;;;;;;;17.08;8.20;;;;;;;;;;5016000;28;20100;-89
2022/12/11 08:50:04;;;;;;;14.43;7.57;;;;;;;;;;5015908;28;20046;-89
2022/12/11 08:52:30;;;;;;;16.85;8.18;;;;;;;;;;4996740;28;20080;-89
2022/12/11 08:54:57;;;;;;;14.02;7.95;;;;;;;;;;5013789;28;21138;-88
2022/12/11 08:57:23;;;;;;;12.55;7.00;;;;;;;;;;5013954;28;20056;-89
2022/12/11 08:59:49;;;;;;;18.65;9.27;;;;;;;;;;5014206;28;20867;-88
2022/12/11 09:02:16;;;;;;;17.42;7.35;;;;;;;;;;5014538;28;20294;-89
2022/12/11 09:04:42;;;;;;;17.20;8.88;;;;;;;;;;5013780;28;20050;-89
2022/12/11 09:07:08;;;;;;;17.88;7.93;;;;;;;;;;4996462;28;20088;-89
2022/12/11 09:09:34;;;;;;;14.55;7.72;;;;;;;;;;5017482;28;20141;-89
2022/12/11 09:12:00;;;;;;;17.05;7.88;;;;;;;;;;5017604;28;20533;-89
2022/12/11 09:14:27;;;;;;;14.20;7.65;;;;;;;;;;5016169;28;20057;-89
2022/12/11 09:16:53;;;;;;;13.65;8.38;;;;;;;;;;5014867;28;20038;-89
2022/12/11 09:19:19;;;;;;;11.00;7.40;;;;;;;;;;5001183;28;20046;-89
2022/12/11 09:21:45;;;;;;;18.27;8.35;;;;;;;;;;5017848;28;20539;-88
2022/12/11 09:24:12;;;;;;;16.60;8.50;;;;;;;;;;5016846;28;20038;-88
2022/12/11 09:26:38;;;;;;;20.77;8.65;;;;;;;;;;5015888;28;20050;-89
2022/12/11 09:29:05;;;;;;;16.48;8.18;;;;;;;;;;5017819;28;20073;-89
2022/12/11 09:31:33;;;;;;;14.60;7.55;;;;;;;;;;5016907;28;22266;-89
2022/12/11 09:34:06;;;;;;;18.25;9.35;;;;;;;;;;5017315;28;20415;-89
2022/12/11 09:36:32;;;;;;;18.10;9.15;;;;;;;;;;5000473;28;20136;-89
2022/12/11 09:39:02;;;;;;;14.93;8.00;;;;;;;;;;5018141;28;20034;-89
2022/12/11 09:41:28;;;;;;;17.27;8.15;;;;;;;;;;5013876;28;20033;-88
2022/12/11 09:44:01;;;;;;;16.80;8.35;;;;;;;;;;5017576;28;20948;-88
2022/12/11 09:46:27;;;;;;;16.70;8.40;;;;;;;;;;5016492;28;20081;-93
2022/12/11 09:48:55;;;;;;;17.70;8.57;;;;;;;;;;5015750;28;20034;-91
2022/12/11 09:51:24;;;;;;;14.30;8.10;;;;;;;;;;5014488;28;20045;-87
2022/12/11 09:53:50;;;;;;;16.30;8.02;;;;;;;;;;5016528;28;20041;-85
2022/12/11 09:56:32;;;;;;;13.00;7.43;;;;;;;;;;4998679;28;20582;-86
2022/12/11 09:59:16;;;;;;;14.18;8.18;;;;;;;;;;5015183;28;20042;-86
2022/12/11 10:01:52;;;;;;;13.32;7.60;;;;;;;;;;5014630;28;20149;-86
2022/12/11 10:04:41;;;;;;;16.13;8.63;;;;;;;;;;5015304;28;20049;-86
2022/12/11 10:07:20;;;;;;;19.02;9.20;;;;;;;;;;5014677;28;20050;-86
2022/12/11 10:09:49;;;;;;;20.58;9.57;;;;;;;;;;5013311;28;20124;-86
2022/12/11 10:12:34;;;;;;;14.32;9.55;;;;;;;;;;5015149;28;20057;-84
2022/12/11 10:15:18;;;;;;;18.08;9.60;;;;;;;;;;5011737;28;20042;-85
2022/12/11 10:17:45;;;;;;;15.63;8.88;;;;;;;;;;5013239;28;20552;-87
2022/12/11 10:20:14;;;;;;;17.40;8.93;;;;;;;;;;5013569;28;20046;-86
2022/12/11 10:22:40;;;;;;;20.10;9.38;;;;;;;;;;5012721;28;20535;-85
2022/12/11 10:25:07;;;;;;;18.75;9.68;;;;;;;;;;5013534;28;20104;-85
2022/12/11 10:27:35;;;;;;;18.23;10.35;;;;;;;;;;5011212;28;20053;-85
2022/12/11 10:30:07;;;;;;;16.75;8.52;;;;;;;;;;5011261;28;20073;-85
2022/12/11 10:32:40;;;;;;;18.20;9.30;;;;;;;;;;5011381;28;20048;-87
2022/12/11 10:35:07;;;;;;;20.25;8.57;;;;;;;;;;5012293;28;20041;-85
2022/12/11 10:37:33;;;;;;;21.27;9.60;;;;;;;;;;5010678;28;20053;-87
2022/12/11 10:40:00;;;;;;;21.60;12.40;;;;;;;;;;5010721;28;20560;-85
2022/12/11 10:42:26;;;;;;;17.83;8.35;;;;;;;;;;4990083;28;20034;-86
2022/12/11 10:44:57;;;;;;;17.75;9.40;;;;;;;;;;5006971;28;20042;-86
2022/12/11 10:47:23;;;;;;;19.80;10.52;;;;;;;;;;5008635;28;20587;-85
2022/12/11 10:49:52;;;;;;;16.58;8.48;;;;;;;;;;4991141;28;20034;-84
2022/12/11 10:52:23;;;;;;;22.23;10.00;;;;;;;;;;5010816;28;20042;-86
2022/12/11 10:55:01;;;;;;;22.65;9.85;;;;;;;;;;5009373;28;20059;-85
2022/12/11 10:57:29;;;;;;;17.55;9.07;;;;;;;;;;5008430;28;20891;-85
2022/12/11 10:59:55;;;;;;;17.73;9.65;;;;;;;;;;5007286;28;20046;-85
2022/12/11 11:02:29;;;;;;;19.13;7.80;;;;;;;;;;5009891;28;20524;-85
2022/12/11 11:04:56;;;;;;;16.30;7.65;;;;;;;;;;5006875;28;20038;-85
2022/12/11 11:07:23;;;;;;;22.08;9.50;;;;;;;;;;5010532;28;20516;-84
2022/12/11 11:09:50;;;;;;;16.27;7.78;;;;;;;;;;5011419;28;20056;-85
2022/12/11 11:12:25;;;;;;;18.95;8.88;;;;;;;;;;5013344;28;20657;-85
2022/12/11 11:15:10;;;;;;;20.88;10.27;;;;;;;;;;5007653;28;20042;-85
2022/12/11 11:17:45;;;;;;;18.83;8.50;;;;;;;;;;5008376;28;20046;-85
2022/12/11 11:20:14;;;;;;;18.02;9.25;;;;;;;;;;5008479;28;20096;-85
2022/12/11 11:22:42;;;;;;;14.35;8.45;;;;;;;;;;5009070;28;20038;-84
2022/12/11 11:25:16;;;;;;;15.00;7.38;;;;;;;;;;5007846;28;20069;-85
2022/12/11 11:27:44;;;;;;;16.67;9.55;;;;;;;;;;5009208;28;20052;-85
2022/12/11 11:30:20;;;;;;;17.17;9.15;;;;;;;;;;5007345;28;20070;-85
2022/12/11 11:32:46;;;;;;;17.75;8.85;;;;;;;;;;5006698;28;20037;-85
2022/12/11 11:35:12;;;;;;;20.88;10.18;;;;;;;;;;4989882;28;20041;-86
2022/12/11 11:37:39;;;;;;;18.20;8.38;;;;;;;;;;5006409;28;20820;-85
2022/12/11 11:40:10;;;;;;;16.08;8.45;;;;;;;;;;5009091;28;21749;-85
2022/12/11 11:42:40;;;;;;;16.60;8.38;;;;;;;;;;5006900;28;20037;-85
2022/12/11 11:45:12;;;;;;;16.92;9.93;;;;;;;;;;5008435;28;22689;-85
2022/12/11 11:47:42;;;;;;;19.35;9.02;;;;;;;;;;5008475;28;20579;-84
2022/12/11 11:50:17;;;;;;;16.20;7.88;;;;;;;;;;5007700;28;20042;-86
2022/12/11 11:52:47;;;;;;;17.38;7.93;;;;;;;;;;5008419;28;20166;-85
2022/12/11 11:55:26;;;;;;;15.10;7.35;;;;;;;;;;5009439;28;20140;-85
2022/12/11 11:58:01;;;;;;;14.65;7.68;;;;;;;;;;5011182;28;20041;-85
2022/12/11 12:00:29;;;;;;;14.57;7.53;;;;;;;;;;5009029;28;20127;-85
2022/12/11 12:03:02;;;;;;;18.02;8.27;;;;;;;;;;5013081;28;20049;-85
2022/12/11 12:05:38;;;;;;;15.68;8.05;;;;;;;;;;5010580;28;20072;-85
2022/12/11 12:08:16;;;;;;;18.20;9.05;;;;;;;;;;5008825;28;20084;-86
2022/12/11 12:10:45;;;;;;;17.23;8.57;;;;;;;;;;5012414;28;20049;-85
2022/12/11 12:13:30;;;;;;;16.33;9.30;;;;;;;;;;5012085;28;20061;-83
2022/12/11 12:15:57;;;;;;;16.38;9.60;;;;;;;;;;5009956;28;20046;-81
2022/12/11 12:18:35;;;;;;;16.20;8.35;;;;;;;;;;5010062;28;20664;-86
2022/12/11 12:21:08;;;;;;;15.13;7.85;;;;;;;;;;5010578;28;20942;-86
2022/12/11 12:23:43;;;;;;;14.80;7.65;;;;;;;;;;5010867;28;20042;-86
2022/12/11 12:26:09;;;;;;;16.80;8.57;;;;;;;;;;5006373;28;20057;-78
2022/12/11 12:28:35;;;;;;;19.30;9.75;;;;;;;;;;5010680;28;20046;-81
2022/12/11 12:31:01;;;;;;;16.80;7.93;;;;;;;;;;5011535;28;20038;-79
2022/12/11 12:33:33;;;;;;;18.15;9.05;;;;;;;;;;5008135;28;20061;-80
2022/12/11 12:35:59;;;;;;;;;;;;;;;;;;5011468;28;20120;-77
2022/12/11 12:38:43;;;;;;;21.40;8.57;;;;;;;;;;5009065;28;20011;-77
2022/12/11 12:41:12;;;;;;;24.33;8.93;;;;;;;;;;5009282;28;20048;-78
2022/12/11 12:43:57;;;;;;;18.23;9.30;;;;;;;;;;5010183;28;21113;-78
2022/12/11 12:46:40;;;;;;;17.08;8.73;;;;;;;;;;5010489;28;20053;-78
2022/12/11 12:49:11;;;;;;;21.00;9.68;;;;;;;;;;5013579;28;20852;-78
2022/12/11 12:51:37;;;;;;;17.60;8.85;;;;;;;;;;5013272;28;20125;-78
2022/12/11 12:54:03;;;;;;;21.73;9.02;;;;;;;;;;5012922;28;20037;-77
2022/12/11 12:56:31;;;;;;;17.58;10.35;;;;;;;;;;4996151;28;20093;-78
2022/12/11 12:58:57;;;;;;;14.52;8.15;;;;;;;;;;5012026;28;20503;-78
2022/12/11 13:01:28;;;;;;;18.17;9.05;;;;;;;;;;5012725;28;20116;-77
2022/12/11 13:04:00;;;;;;;22.77;9.77;;;;;;;;;;5011202;28;20108;-78
2022/12/11 13:06:26;;;;;;;;;;;;;;;;;;5012019;28;20050;-78
2022/12/11 13:08:52;;;;;;;19.02;8.60;;;;;;;;;;5015068;28;20304;-78
2022/12/11 13:11:19;;;;;;;17.92;8.77;;;;;;;;;;5012114;28;20053;-78
2022/12/11 13:14:00;;;;;;;19.55;9.35;;;;;;;;;;5011100;28;20125;-78
2022/12/11 13:16:34;;;;;;;20.25;9.25;;;;;;;;;;5011842;28;20042;-77
2022/12/11 13:19:00;;;;;;;16.70;9.35;;;;;;;;;;5011817;28;20074;-78
2022/12/11 13:21:34;;;;;;;16.08;8.25;;;;;;;;;;5013751;28;20052;-78
2022/12/11 13:24:24;;;;;;;16.25;8.20;;;;;;;;;;5011599;28;20050;-78
2022/12/11 13:26:51;;;;;;;17.90;8.80;;;;;;;;;;5014858;28;20136;-78
2022/12/11 13:29:34;;;;;;;17.38;7.22;;;;;;;;;;5014869;28;20543;-78
2022/12/11 13:32:02;;;;;;;19.80;9.48;;;;;;;;;;5013523;28;20484;-78
2022/12/11 13:34:31;;;;;;;18.45;9.93;;;;;;;;;;5017469;28;20061;-78
2022/12/11 13:36:58;;;;;;;18.42;8.57;;;;;;;;;;4999917;28;21285;-78
2022/12/11 13:39:26;;;;;;;18.70;10.05;;;;;;;;;;5017956;28;20052;-78
2022/12/11 13:42:07;;;;;;;23.05;9.55;;;;;;;;;;4998924;28;20045;-78
2022/12/11 13:44:39;;;;;;;22.30;9.85;;;;;;;;;;4998856;28;20049;-78
2022/12/11 13:47:06;;;;;;;19.50;10.90;;;;;;;;;;5018342;28;20667;-78
2022/12/11 13:49:42;;;;;;;17.50;8.60;;;;;;;;;;5018099;28;20691;-83
2022/12/11 13:52:19;;;;;;;16.33;9.48;;;;;;;;;;5013309;28;20042;-85
2022/12/11 13:54:50;;;;;;;19.48;9.73;;;;;;;;;;5011126;28;20108;-78
2022/12/11 13:57:20;;;;;;;18.38;8.68;;;;;;;;;;5010626;28;20053;-78
2022/12/11 13:59:52;;;;;;;25.70;12.80;;;;;;;;;;5010722;28;20136;-81
2022/12/11 14:02:29;;;;;;;36.53;17.30;;;;;;;;;;5011933;28;20550;-78
2022/12/11 14:04:59;;;;;;;48.60;24.38;;;;;;;;;;5015341;28;20254;-78
2022/12/11 14:07:30;;;;;;;38.17;22.17;;;;;;;;;;4996000;28;20752;-78
2022/12/11 14:10:00;;;;;;;39.05;20.38;;;;;;;;;;5015885;28;20053;-77
2022/12/11 14:12:28;;;;;;;46.95;23.92;;;;;;;;;;5012527;28;20042;-78
2022/12/11 14:14:55;;;;;;;23.73;10.52;;;;;;;;;;4998530;28;20045;-78
2022/12/11 14:17:29;;;;;;;17.60;7.85;;;;;;;;;;5014094;28;20088;-78
2022/12/11 14:19:56;;;;;;;16.50;9.93;;;;;;;;;;5013910;28;20141;-78
2022/12/11 14:22:24;;;;;;;11.50;8.02;;;;;;;;;;5013778;28;20086;-78
2022/12/11 14:24:51;;;;;;;20.27;9.63;;;;;;;;;;5015168;28;20639;-78
2022/12/11 14:27:18;;;;;;;19.77;9.88;;;;;;;;;;5013254;28;20042;-78
2022/12/11 14:29:44;;;;;;;25.85;14.63;;;;;;;;;;4998921;28;20122;-78
2022/12/11 14:32:26;;;;;;;18.95;11.05;;;;;;;;;;4997676;28;20592;-78
2022/12/11 14:34:52;;;;;;;23.80;12.43;;;;;;;;;;5011894;28;20038;-78
2022/12/11 14:37:20;;;;;;;21.77;11.68;;;;;;;;;;5014250;28;20045;-78
2022/12/11 14:39:59;;;;;;;22.98;10.68;;;;;;;;;;5017271;28;20046;-78
2022/12/11 14:42:31;;;;;;;21.92;12.18;;;;;;;;;;5015649;28;20049;-78
2022/12/11 14:45:19;;;;;;;17.00;10.90;;;;;;;;;;4999406;28;20109;-78
2022/12/11 14:47:45;;;;;;;22.95;10.80;;;;;;;;;;4999719;28;20823;-78